createdAt,value
2022-10-21T00:00:27.908Z,3.60
2022-10-21T00:02:56.142Z,3.30
2022-10-21T00:05:24.371Z,3.60
2022-10-21T00:07:52.618Z,2.93
2022-10-21T00:10:22.692Z,2.73
2022-10-21T00:12:50.935Z,3.00
2022-10-21T00:15:19.243Z,3.00
2022-10-21T00:17:47.529Z,2.97
2022-10-21T00:20:16.185Z,3.03
2022-10-21T00:22:44.481Z,3.00
2022-10-21T00:25:12.805Z,3.93
2022-10-21T00:27:42.354Z,3.33
2022-10-21T00:30:11.343Z,2.93
2022-10-21T00:32:39.811Z,3.77
2022-10-21T00:35:08.643Z,3.63
2022-10-21T00:37:37.302Z,2.77
2022-10-21T00:40:06.047Z,3.00
2022-10-21T00:42:37.848Z,2.70
2022-10-21T00:45:23.214Z,2.63
2022-10-21T00:47:53.363Z,2.37
2022-10-21T00:50:25.422Z,2.87
2022-10-21T00:52:54.347Z,2.70
2022-10-21T00:55:23.729Z,2.57
2022-10-21T00:57:52.287Z,2.70
2022-10-21T01:00:21.982Z,2.37
2022-10-21T01:02:50.238Z,2.87
2022-10-21T01:05:18.791Z,3.33
2022-10-21T01:07:48.219Z,2.60
2022-10-21T01:10:16.625Z,2.50
2022-10-21T01:12:50.419Z,2.17
2022-10-21T01:15:22.260Z,3.30
2022-10-21T01:17:55.256Z,3.20
2022-10-21T01:20:56.510Z,1.60
2022-10-21T01:23:36.329Z,2.27
2022-10-21T01:26:11.157Z,2.03
2022-10-21T01:28:45.106Z,2.30
2022-10-21T01:31:18.975Z,1.83
2022-10-21T01:33:50.602Z,1.70
2022-10-21T01:36:27.114Z,3.07
2022-10-21T01:39:01.833Z,2.00
2022-10-21T01:41:31.820Z,2.10
2022-10-21T01:44:04.112Z,1.67
2022-10-21T01:46:36.361Z,2.20
2022-10-21T01:49:06.068Z,2.00
2022-10-21T01:51:34.862Z,1.70
2022-10-21T01:54:05.755Z,2.17
2022-10-21T01:56:35.405Z,2.27
2022-10-21T01:59:06.890Z,2.20
2022-10-21T02:01:36.997Z,2.47
2022-10-21T02:04:06.359Z,1.70
2022-10-21T02:06:34.946Z,2.07
2022-10-21T02:09:03.326Z,2.20
2022-10-21T02:11:32.301Z,2.30
2022-10-21T02:14:03.067Z,2.00
2022-10-21T02:16:33.273Z,2.20
2022-10-21T02:19:02.894Z,3.00
2022-10-21T02:21:33.249Z,2.30
2022-10-21T02:24:04.646Z,2.13
2022-10-21T02:26:32.836Z,2.50
2022-10-21T02:29:01.152Z,2.37
2022-10-21T02:31:38.458Z,3.07
2022-10-21T02:34:12.392Z,2.17
2022-10-21T02:36:43.742Z,2.60
2022-10-21T02:39:14.471Z,3.00
2022-10-21T02:41:43.893Z,3.73
2022-10-21T02:44:12.426Z,2.57
2022-10-21T02:46:43.025Z,2.97
2022-10-21T02:49:12.839Z,3.67
2022-10-21T02:51:41.411Z,2.40
2022-10-21T02:54:09.679Z,2.30
2022-10-21T02:56:37.907Z,2.20
2022-10-21T02:59:06.111Z,2.40
2022-10-21T03:01:34.396Z,2.77
2022-10-21T03:04:02.589Z,2.30
2022-10-21T03:06:32.156Z,3.07
2022-10-21T03:09:00.467Z,1.93
2022-10-21T03:11:28.689Z,2.50
2022-10-21T03:13:57.178Z,2.83
2022-10-21T03:16:25.391Z,2.63
2022-10-21T03:18:53.594Z,3.50
2022-10-21T03:21:21.823Z,2.80
2022-10-21T03:23:51.352Z,2.43
2022-10-21T03:26:19.621Z,2.43
2022-10-21T03:28:47.847Z,4.27
2022-10-21T03:31:16.048Z,3.20
2022-10-21T03:33:44.410Z,2.53
2022-10-21T03:36:12.601Z,2.60
2022-10-21T03:38:40.785Z,3.50
2022-10-21T03:41:10.313Z,5.47
2022-10-21T03:43:38.500Z,3.07
2022-10-21T03:46:07.053Z,3.30
2022-10-21T03:48:35.256Z,3.67
2022-10-21T03:51:03.506Z,3.57
2022-10-21T03:53:42.933Z,2.67
2022-10-21T03:56:13.396Z,2.40
2022-10-21T03:58:41.632Z,3.13
2022-10-21T04:01:12.735Z,2.80
2022-10-21T04:03:41.385Z,3.27
2022-10-21T04:06:09.622Z,3.27
2022-10-21T04:08:37.930Z,2.73
2022-10-21T04:11:07.367Z,3.00
2022-10-21T04:13:37.304Z,2.90
2022-10-21T04:16:06.855Z,4.27
2022-10-21T04:18:36.424Z,2.73
2022-10-21T04:21:04.694Z,3.00
2022-10-21T04:23:32.904Z,3.37
2022-10-21T04:26:01.091Z,3.07
2022-10-21T04:28:29.286Z,4.00
2022-10-21T04:30:58.967Z,3.30
2022-10-21T04:33:27.254Z,3.33
2022-10-21T04:35:55.946Z,2.80
2022-10-21T04:38:24.478Z,3.77
2022-10-21T04:40:57.268Z,5.13
2022-10-21T04:43:25.811Z,3.53
2022-10-21T04:45:54.091Z,3.17
2022-10-21T04:48:23.857Z,3.27
2022-10-21T04:50:52.834Z,3.40
2022-10-21T04:53:21.298Z,2.90
2022-10-21T04:55:52.099Z,2.90
2022-10-21T04:58:21.937Z,2.83
2022-10-21T05:00:50.976Z,3.20
2022-10-21T05:03:19.496Z,5.60
2022-10-21T05:05:50.305Z,3.30
2022-10-21T05:08:18.511Z,3.43
2022-10-21T05:10:46.799Z,2.97
2022-10-21T05:13:15.031Z,3.00
2022-10-21T05:15:43.262Z,3.23
2022-10-21T05:18:13.727Z,2.90
2022-10-21T05:20:42.551Z,3.20
2022-10-21T05:23:12.140Z,3.37
2022-10-21T05:25:40.403Z,3.70
2022-10-21T05:28:08.599Z,3.20
2022-10-21T05:30:36.962Z,3.57
2022-10-21T05:33:05.447Z,3.30
2022-10-21T05:35:33.733Z,4.73
2022-10-21T05:38:02.032Z,3.10
2022-10-21T05:40:31.678Z,3.70
2022-10-21T05:43:03.948Z,4.80
2022-10-21T05:45:32.155Z,4.20
2022-10-21T05:48:00.365Z,3.83
2022-10-21T05:50:28.590Z,4.03
2022-10-21T05:52:58.801Z,4.70
2022-10-21T05:55:27.169Z,3.90
2022-10-21T05:57:59.251Z,4.27
2022-10-21T06:00:27.799Z,4.80
2022-10-21T06:02:56.058Z,4.83
2022-10-21T06:05:24.285Z,6.30
2022-10-21T06:07:52.466Z,8.13
2022-10-21T06:10:21.880Z,5.60
2022-10-21T06:12:51.663Z,5.90
2022-10-21T06:15:21.320Z,5.97
2022-10-21T06:17:50.296Z,6.03
2022-10-21T06:20:18.597Z,5.00
2022-10-21T06:22:46.823Z,6.00
2022-10-21T06:25:15.017Z,5.03
2022-10-21T06:27:43.246Z,6.57
2022-10-21T06:30:12.133Z,5.70
2022-10-21T06:32:41.705Z,5.23
2022-10-21T06:35:09.969Z,5.10
2022-10-21T06:37:38.618Z,6.23
2022-10-21T06:40:07.500Z,6.73
2022-10-21T06:42:35.761Z,5.73
2022-10-21T06:45:04.010Z,5.47
2022-10-21T06:47:32.607Z,6.77
2022-10-21T06:50:03.454Z,6.93
2022-10-21T06:52:31.958Z,6.37
2022-10-21T06:55:00.146Z,7.17
2022-10-21T06:57:28.720Z,7.50
2022-10-21T06:59:56.919Z,6.50
2022-10-21T07:02:25.180Z,6.50
2022-10-21T07:04:53.635Z,6.67
2022-10-21T07:07:23.184Z,7.10
2022-10-21T07:09:51.483Z,6.50
2022-10-21T07:12:20.131Z,6.93
2022-10-21T07:14:48.361Z,7.70
2022-10-21T07:17:16.672Z,6.50
2022-10-21T07:19:45.037Z,7.47
2022-10-21T07:22:13.291Z,6.23
2022-10-21T07:24:42.883Z,6.80
2022-10-21T07:27:11.074Z,6.47
2022-10-21T07:29:39.589Z,7.03
2022-10-21T07:32:07.789Z,7.20
2022-10-21T07:34:35.997Z,6.73
2022-10-21T07:37:04.211Z,6.63
2022-10-21T07:39:32.598Z,5.67
2022-10-21T07:42:02.253Z,5.30
2022-10-21T07:44:30.434Z,5.60
2022-10-21T07:46:58.666Z,5.00
2022-10-21T07:49:26.878Z,4.73
2022-10-21T07:51:55.095Z,4.67
2022-10-21T07:54:23.303Z,4.57
2022-10-21T07:56:52.339Z,4.23
2022-10-21T07:59:22.876Z,4.47
2022-10-21T08:01:53.188Z,3.97
2022-10-21T08:04:22.735Z,3.70
2022-10-21T08:06:50.979Z,3.27
2022-10-21T08:09:19.590Z,3.57
2022-10-21T08:11:48.065Z,2.90
2022-10-21T08:14:16.468Z,3.60
2022-10-21T08:16:46.121Z,2.70
2022-10-21T08:19:19.420Z,2.90
2022-10-21T08:21:47.814Z,2.87
2022-10-21T08:24:16.016Z,4.23
2022-10-21T08:26:44.248Z,2.50
2022-10-21T08:29:12.484Z,1.80
2022-10-21T08:31:40.959Z,2.90
2022-10-21T08:34:10.703Z,2.10
2022-10-21T08:36:39.729Z,1.70
2022-10-21T08:39:07.990Z,1.70
2022-10-21T08:41:51.260Z,1.93
2022-10-21T08:44:25.052Z,2.00
2022-10-21T08:46:59.379Z,1.70
2022-10-21T08:49:30.953Z,2.53
2022-10-21T08:52:03.362Z,1.10
2022-10-21T08:54:36.014Z,1.90
2022-10-21T08:57:04.258Z,1.80
2022-10-21T08:59:32.421Z,1.30
2022-10-21T09:02:03.050Z,1.50
2022-10-21T09:04:37.729Z,1.43
2022-10-21T09:07:09.355Z,1.30
2022-10-21T09:09:42.542Z,1.73
2022-10-21T09:12:15.026Z,1.40
2022-10-21T09:15:01.895Z,1.57
2022-10-21T09:17:39.734Z,1.00
2022-10-21T09:20:18.924Z,1.37
2022-10-21T09:22:54.487Z,1.30
2022-10-21T09:25:24.637Z,1.53
2022-10-21T09:27:57.181Z,1.53
2022-10-21T09:30:26.105Z,1.47
2022-10-21T09:32:58.036Z,1.10
2022-10-21T09:35:32.430Z,1.53
2022-10-21T09:38:04.122Z,1.20
2022-10-21T09:40:33.906Z,1.27
2022-10-21T09:43:02.820Z,1.40
2022-10-21T09:45:33.685Z,2.57
2022-10-21T09:48:03.353Z,1.70
2022-10-21T09:50:34.288Z,1.70
2022-10-21T09:53:04.563Z,1.40
2022-10-21T09:55:33.749Z,1.37
2022-10-21T09:58:02.953Z,2.03
2022-10-21T10:00:45.774Z,1.70
2022-10-21T10:03:14.251Z,1.73
2022-10-21T10:05:47.914Z,1.63
2022-10-21T10:08:37.637Z,1.80
2022-10-21T10:11:07.307Z,2.00
2022-10-21T10:13:35.565Z,1.70
2022-10-21T10:16:14.748Z,2.17
2022-10-21T10:18:43.361Z,1.77
2022-10-21T10:21:13.855Z,2.20
2022-10-21T10:23:46.427Z,2.20
2022-10-21T10:26:19.525Z,2.53
2022-10-21T10:28:55.606Z,2.70
2022-10-21T10:31:28.581Z,2.37
2022-10-21T10:33:59.000Z,2.23
2022-10-21T10:36:31.860Z,2.50
2022-10-21T10:39:01.148Z,1.93
2022-10-21T10:41:37.871Z,2.07
2022-10-21T10:44:11.031Z,1.90
2022-10-21T10:46:40.646Z,2.00
2022-10-21T10:49:21.264Z,2.00
2022-10-21T10:52:04.584Z,1.93
2022-10-21T10:54:32.951Z,1.47
2022-10-21T10:57:02.454Z,1.80
2022-10-21T10:59:34.698Z,2.00
2022-10-21T11:02:09.907Z,2.27
2022-10-21T11:04:40.058Z,1.70
2022-10-21T11:07:14.737Z,1.80
2022-10-21T11:09:43.452Z,1.73
2022-10-21T11:12:16.865Z,1.40
2022-10-21T11:14:45.685Z,1.63
2022-10-21T11:17:14.603Z,1.33
2022-10-21T11:19:46.176Z,1.57
2022-10-21T11:22:22.157Z,2.40
2022-10-21T11:24:57.179Z,1.60
2022-10-21T11:27:39.697Z,1.83
2022-10-21T11:30:12.531Z,1.60
2022-10-21T11:32:46.210Z,1.83
2022-10-21T11:35:28.246Z,1.30
2022-10-21T11:38:02.356Z,1.70
2022-10-21T11:40:33.933Z,1.07
2022-10-21T11:43:07.398Z,1.00
2022-10-21T11:45:40.795Z,1.30
2022-10-21T11:48:15.996Z,1.10
2022-10-21T11:50:49.569Z,1.30
2022-10-21T11:53:28.018Z,1.23
2022-10-21T11:56:03.882Z,1.10
2022-10-21T11:58:38.006Z,1.23
2022-10-21T12:01:12.142Z,1.10
2022-10-21T12:03:45.567Z,1.03
2022-10-21T12:06:20.039Z,1.20
2022-10-21T12:08:53.605Z,0.90
2022-10-21T12:11:23.827Z,1.10
2022-10-21T12:13:54.102Z,0.80
2022-10-21T12:16:25.614Z,1.10
2022-10-21T12:18:55.234Z,1.23
2022-10-21T12:21:26.214Z,0.90
2022-10-21T12:23:58.780Z,1.00
2022-10-21T12:26:29.841Z,0.83
2022-10-21T12:29:00.282Z,1.07
2022-10-21T12:31:32.920Z,1.10
2022-10-21T12:34:01.205Z,0.80
2022-10-21T12:36:39.402Z,1.00
2022-10-21T12:39:12.663Z,1.20
2022-10-21T12:41:41.899Z,1.10
2022-10-21T12:44:21.835Z,1.03
2022-10-21T12:46:51.502Z,1.30
2022-10-21T12:49:24.197Z,1.10
2022-10-21T12:51:54.170Z,1.20
2022-10-21T12:54:28.079Z,0.90
2022-10-21T12:57:04.666Z,0.90
2022-10-21T12:59:35.145Z,1.07
2022-10-21T13:02:20.970Z,1.00
2022-10-21T13:04:51.872Z,1.03
2022-10-21T13:07:30.970Z,2.40
2022-10-21T13:10:29.648Z,0.73
2022-10-21T13:13:18.589Z,1.20
2022-10-21T13:15:49.163Z,1.20
2022-10-21T13:18:32.249Z,1.00
2022-10-21T13:21:00.669Z,1.10
2022-10-21T13:23:39.698Z,1.10
2022-10-21T13:26:21.473Z,1.03
2022-10-21T13:29:03.807Z,1.10
2022-10-21T13:31:33.656Z,1.07
2022-10-21T13:34:04.401Z,1.10
2022-10-21T13:36:42.828Z,0.80
2022-10-21T13:39:23.402Z,1.17
2022-10-21T13:41:58.507Z,1.07
2022-10-21T13:44:29.263Z,0.90
2022-10-21T13:46:59.465Z,1.23
2022-10-21T13:49:28.714Z,1.10
2022-10-21T13:51:57.018Z,1.00
2022-10-21T13:54:25.250Z,1.27
2022-10-21T13:56:53.450Z,1.47
2022-10-21T13:59:25.257Z,1.13
2022-10-21T14:01:55.223Z,1.63
2022-10-21T14:04:26.028Z,1.20
2022-10-21T14:06:56.808Z,1.23
2022-10-21T14:09:26.241Z,1.37
2022-10-21T14:11:58.203Z,1.20
2022-10-21T14:14:27.339Z,1.70
2022-10-21T14:16:57.495Z,1.33
2022-10-21T14:19:28.267Z,1.00
2022-10-21T14:21:58.026Z,1.40
2022-10-21T14:24:29.619Z,1.10
2022-10-21T14:26:58.054Z,1.33
2022-10-21T14:29:28.807Z,1.03
2022-10-21T14:31:57.681Z,1.40
2022-10-21T14:34:28.457Z,1.57
2022-10-21T14:37:09.257Z,1.30
2022-10-21T14:39:40.292Z,1.27
2022-10-21T14:42:10.641Z,1.10
2022-10-21T14:44:39.421Z,1.30
2022-10-21T14:47:07.781Z,1.40
2022-10-21T14:49:48.395Z,1.30
2022-10-21T14:52:20.684Z,1.30
2022-10-21T14:54:50.631Z,0.87
2022-10-21T14:57:27.941Z,1.50
2022-10-21T14:59:56.731Z,1.20
2022-10-21T15:02:29.827Z,1.53
2022-10-21T15:05:00.310Z,1.13
2022-10-21T15:07:29.979Z,1.30
2022-10-21T15:09:59.779Z,1.30
2022-10-21T15:12:28.009Z,2.10
2022-10-21T15:14:56.311Z,1.33
2022-10-21T15:17:24.486Z,1.30
2022-10-21T15:19:53.352Z,1.40
2022-10-21T15:22:27.604Z,1.00
2022-10-21T15:24:57.534Z,1.13
2022-10-21T15:27:27.875Z,1.10
2022-10-21T15:29:56.262Z,1.50
2022-10-21T15:32:28.278Z,1.23
2022-10-21T15:34:59.334Z,1.40
2022-10-21T15:37:28.833Z,1.60
2022-10-21T15:39:57.148Z,1.17
2022-10-21T15:42:25.379Z,2.60
2022-10-21T15:44:53.648Z,1.40
2022-10-21T15:47:24.007Z,1.03
2022-10-21T15:49:53.278Z,1.70
2022-10-21T15:52:21.667Z,1.60
2022-10-21T15:54:51.414Z,1.20
2022-10-21T15:57:20.539Z,1.00
2022-10-21T15:59:48.977Z,1.53
2022-10-21T16:02:18.489Z,1.20
2022-10-21T16:04:47.150Z,1.17
2022-10-21T16:07:18.651Z,1.13
2022-10-21T16:09:46.847Z,1.30
2022-10-21T16:12:16.791Z,1.67
2022-10-21T16:14:45.089Z,0.70
2022-10-21T16:17:13.923Z,1.17
2022-10-21T16:19:42.342Z,1.20
2022-10-21T16:22:14.376Z,1.07
2022-10-21T16:24:42.544Z,1.00
2022-10-21T16:27:12.067Z,1.50
2022-10-21T16:29:41.830Z,2.40
2022-10-21T16:32:12.339Z,1.33
2022-10-21T16:34:40.855Z,1.10
2022-10-21T16:37:18.142Z,1.10
2022-10-21T16:39:46.363Z,1.00
2022-10-21T16:42:14.598Z,1.50
2022-10-21T16:44:45.074Z,1.10
2022-10-21T16:47:17.065Z,0.90
2022-10-21T16:49:47.704Z,1.10
2022-10-21T16:52:17.193Z,1.10
2022-10-21T16:54:48.672Z,1.27
2022-10-21T16:57:17.178Z,1.00
2022-10-21T16:59:46.890Z,1.30
2022-10-21T17:02:16.791Z,0.90
2022-10-21T17:04:45.521Z,1.30
2022-10-21T17:07:13.720Z,1.20
2022-10-21T17:09:41.949Z,1.10
2022-10-21T17:12:11.906Z,1.10
2022-10-21T17:14:40.167Z,1.47
2022-10-21T17:17:09.812Z,1.50
2022-10-21T17:19:38.130Z,2.03
2022-10-21T17:22:07.358Z,1.47
2022-10-21T17:24:35.539Z,1.50
2022-10-21T17:27:03.748Z,1.27
2022-10-21T17:29:31.962Z,1.40
2022-10-21T17:32:00.130Z,1.00
2022-10-21T17:34:34.278Z,0.90
2022-10-21T17:37:02.474Z,1.10
2022-10-21T17:39:30.722Z,1.00
2022-10-21T17:41:58.911Z,1.60
2022-10-21T17:44:27.091Z,1.37
2022-10-21T17:46:55.409Z,1.03
2022-10-21T17:49:23.943Z,1.20
2022-10-21T17:51:53.515Z,1.27
2022-10-21T17:54:24.670Z,1.30
2022-10-21T17:56:56.990Z,1.17
2022-10-21T17:59:25.459Z,1.30
2022-10-21T18:01:54.679Z,1.23
2022-10-21T18:04:22.897Z,1.50
2022-10-21T18:06:51.084Z,1.20
2022-10-21T18:09:20.718Z,1.30
2022-10-21T18:11:48.984Z,2.13
2022-10-21T18:14:17.195Z,1.20
2022-10-21T18:16:45.415Z,1.57
2022-10-21T18:19:13.924Z,2.00
2022-10-21T18:21:42.181Z,1.43
2022-10-21T18:24:12.601Z,1.83
2022-10-21T18:26:42.892Z,1.27
2022-10-21T18:29:11.134Z,1.47
2022-10-21T18:31:39.510Z,1.50
2022-10-21T18:34:09.212Z,1.67
2022-10-21T18:36:37.966Z,1.50
2022-10-21T18:39:07.222Z,1.63
2022-10-21T18:41:36.149Z,1.57
2022-10-21T18:44:08.242Z,1.43
2022-10-21T18:46:36.909Z,1.20
2022-10-21T18:49:05.858Z,1.10
2022-10-21T18:51:35.564Z,1.17
2022-10-21T18:54:03.960Z,1.47
2022-10-21T18:56:32.270Z,1.50
2022-10-21T18:59:00.471Z,1.20
2022-10-21T19:01:30.181Z,1.83
2022-10-21T19:03:58.724Z,1.53
2022-10-21T19:06:37.892Z,1.17
2022-10-21T19:09:07.882Z,1.50
2022-10-21T19:11:36.244Z,1.33
2022-10-21T19:14:08.418Z,1.27
2022-10-21T19:16:41.067Z,1.30
2022-10-21T19:19:09.522Z,1.40
2022-10-21T19:21:37.858Z,1.70
2022-10-21T19:24:06.352Z,1.30
2022-10-21T19:26:35.285Z,1.40
2022-10-21T19:29:04.965Z,1.47
2022-10-21T19:31:36.134Z,1.50
2022-10-21T19:34:07.975Z,1.27
2022-10-21T19:36:37.362Z,2.03
2022-10-21T19:39:07.961Z,1.83
2022-10-21T19:41:36.461Z,1.50
2022-10-21T19:44:04.756Z,1.90
2022-10-21T19:46:33.754Z,1.83
2022-10-21T19:49:02.255Z,2.03
2022-10-21T19:51:31.868Z,1.90
2022-10-21T19:54:00.090Z,1.90
2022-10-21T19:56:32.013Z,1.80
2022-10-21T19:59:02.489Z,2.10
2022-10-21T20:01:31.356Z,1.83
2022-10-21T20:04:01.441Z,2.40
2022-10-21T20:06:30.862Z,2.37
2022-10-21T20:09:02.086Z,2.20
2022-10-21T20:11:30.803Z,2.13
2022-10-21T20:13:59.025Z,2.13
2022-10-21T20:16:28.513Z,2.63
2022-10-21T20:18:57.276Z,2.00
2022-10-21T20:21:25.898Z,2.53
2022-10-21T20:23:54.186Z,2.00
2022-10-21T20:26:24.103Z,2.33
2022-10-21T20:28:52.602Z,2.47
2022-10-21T20:31:20.846Z,2.23
2022-10-21T20:33:49.807Z,2.13
2022-10-21T20:36:20.395Z,1.87
2022-10-21T20:38:48.859Z,2.10
2022-10-21T20:41:17.722Z,2.20
2022-10-21T20:43:47.251Z,2.63
2022-10-21T20:46:15.849Z,2.77
2022-10-21T20:48:44.876Z,2.80
2022-10-21T20:51:14.998Z,2.60
2022-10-21T20:53:45.881Z,2.10
2022-10-21T20:56:14.567Z,2.70
2022-10-21T20:58:43.050Z,2.50
2022-10-21T21:01:14.278Z,2.90
2022-10-21T21:03:42.958Z,3.23
2022-10-21T21:06:11.693Z,2.87
2022-10-21T21:08:49.077Z,3.27
2022-10-21T21:11:26.921Z,2.40
2022-10-21T21:13:55.172Z,2.80
2022-10-21T21:16:24.874Z,2.70
2022-10-21T21:18:54.043Z,3.27
2022-10-21T21:21:22.961Z,3.10
2022-10-21T21:23:51.232Z,3.60
2022-10-21T21:26:20.151Z,3.60
2022-10-21T21:28:49.021Z,3.37
2022-10-21T21:31:17.258Z,3.00
2022-10-21T21:33:46.992Z,3.50
2022-10-21T21:36:16.371Z,3.60
2022-10-21T21:38:44.920Z,4.50
2022-10-21T21:41:13.370Z,3.57
2022-10-21T21:43:43.765Z,3.77
2022-10-21T21:46:12.015Z,3.33
2022-10-21T21:48:41.543Z,3.37
2022-10-21T21:51:12.770Z,4.00
2022-10-21T21:53:40.985Z,3.77
2022-10-21T21:56:09.328Z,3.27
2022-10-21T21:58:39.254Z,3.57
2022-10-21T22:01:11.429Z,4.00
2022-10-21T22:03:39.992Z,3.50
2022-10-21T22:06:08.455Z,3.67
2022-10-21T22:08:39.269Z,4.00
2022-10-21T22:11:08.640Z,3.53
2022-10-21T22:13:37.274Z,3.53
2022-10-21T22:16:06.492Z,4.17
2022-10-21T22:18:35.106Z,3.83
2022-10-21T22:21:03.557Z,3.50
2022-10-21T22:23:31.790Z,3.47
2022-10-21T22:26:01.503Z,4.77
2022-10-21T22:28:30.086Z,3.70
2022-10-21T22:30:58.912Z,3.90
2022-10-21T22:33:27.151Z,5.23
2022-10-21T22:35:55.639Z,4.27
2022-10-21T22:38:24.026Z,4.10
2022-10-21T22:40:54.262Z,3.50
2022-10-21T22:43:24.669Z,4.20
2022-10-21T22:45:55.292Z,4.27
2022-10-21T22:48:29.529Z,4.50
2022-10-21T22:50:58.234Z,4.60
2022-10-21T22:53:26.437Z,4.33
2022-10-21T22:55:54.698Z,3.27
2022-10-21T22:58:24.275Z,4.23
2022-10-21T23:00:52.916Z,4.67
2022-10-21T23:03:21.890Z,4.23
2022-10-21T23:05:50.678Z,4.40
2022-10-21T23:08:19.293Z,4.37
2022-10-21T23:10:49.234Z,3.97
2022-10-21T23:13:17.441Z,4.20
2022-10-21T23:15:48.709Z,3.77
2022-10-21T23:18:17.540Z,3.80
2022-10-21T23:20:45.712Z,3.40
2022-10-21T23:23:13.899Z,4.40
2022-10-21T23:25:42.163Z,5.20
2022-10-21T23:28:11.053Z,3.90
2022-10-21T23:30:40.431Z,3.87
2022-10-21T23:33:09.987Z,4.30
2022-10-21T23:35:38.191Z,4.90
2022-10-21T23:38:06.728Z,4.00
2022-10-21T23:40:34.919Z,4.03
2022-10-21T23:43:03.265Z,5.10
2022-10-21T23:45:31.550Z,3.70
2022-10-21T23:47:59.768Z,3.97
2022-10-21T23:50:29.322Z,4.70
2022-10-21T23:52:57.538Z,3.63
2022-10-21T23:55:25.783Z,3.50
2022-10-21T23:57:54.007Z,4.10
